Thousand Springs, Nevada
Current Conditions -  °F | °C
As of 6:35 PM on Tuesday 21 Oct 2014 (Local Time) from KENV Reporting Station
Few Clouds Few Clouds  
Wind Chill: 13°   Ceiling: Unl
Heat Index: 13°   Visibility: 10mi
Dew Point: -2°   Wind: 10mph
Humidity: 36%   Direction: 20°NNE
Pressure: 30.05"   Gusts: NA
Location:  41.0114°N, 114.57°W
Report Text: KENV 220135Z AUTO 02009KT 10SM FEW120 13/M02 A3005 RMK AO1
Loading
Personal Weather Stations






























Interactive Weather Map New forecast layout! Learn more

10-Day Weather Forecast

Advertisements
Track Severe Weather on mobile